Time;durP1;ratioP1;P1;durP2;ratioP2;P2;SDS_P1;SDS_P2;PMS_P1;PMS_P2;Temp;Humidity;BMP_temperature;BMP_pressure;BME280_temperature;BME280_humidity;BME280_pressure;Samples;Min_cycle;Max_cycle;Signal;HPM_P1;HPM_P2
2022/05/28 00:00:53;;;;;;;11.25;3.75;;;;;;;;;;2075049;28;20185;-53
2022/05/28 00:01:53;;;;;;;4.88;2.90;;;;;;;;;;2074729;28;20165;-54
2022/05/28 00:02:53;;;;;;;10.50;3.42;;;;;;;;;;2075139;28;20172;-56
2022/05/28 00:03:57;;;;;;;7.03;3.05;;;;;;;;;;2074353;28;20169;-55
2022/05/28 00:04:57;;;;;;;8.73;3.50;;;;;;;;;;2074082;28;20271;-56
2022/05/28 00:05:58;;;;;;;5.22;3.05;;;;;;;;;;2074223;28;20165;-53
2022/05/28 00:06:58;;;;;;;8.63;3.20;;;;;;;;;;2074258;28;20172;-55
2022/05/28 00:07:58;;;;;;;6.10;3.20;;;;;;;;;;2074094;28;20197;-55
2022/05/28 00:08:59;;;;;;;10.57;3.53;;;;;;;;;;2074017;28;20181;-54
2022/05/28 00:10:00;;;;;;;9.07;3.28;;;;;;;;;;2074740;28;20184;-55
2022/05/28 00:11:00;;;;;;;10.52;3.53;;;;;;;;;;2075304;28;20536;-54
2022/05/28 00:12:00;;;;;;;5.30;3.00;;;;;;;;;;2073356;28;20668;-53
2022/05/28 00:13:01;;;;;;;9.25;3.28;;;;;;;;;;2073467;28;20180;-54
2022/05/28 00:14:01;;;;;;;6.32;2.90;;;;;;;;;;2072722;28;20184;-56
2022/05/28 00:15:01;;;;;;;6.93;3.45;;;;;;;;;;2073770;28;20182;-55
2022/05/28 00:16:02;;;;;;;6.15;3.38;;;;;;;;;;2074677;28;20642;-56
2022/05/28 00:17:02;;;;;;;5.97;3.22;;;;;;;;;;2074764;28;20183;-55
2022/05/28 00:18:03;;;;;;;7.80;3.42;;;;;;;;;;2074164;28;20554;-55
2022/05/28 00:19:04;;;;;;;6.88;3.78;;;;;;;;;;2074161;28;20635;-56
2022/05/28 00:20:05;;;;;;;7.15;3.25;;;;;;;;;;2073674;28;20173;-55
2022/05/28 00:21:05;;;;;;;10.65;3.97;;;;;;;;;;2065812;28;20166;-52
2022/05/28 00:22:05;;;;;;;6.47;3.15;;;;;;;;;;2073593;28;20267;-54
2022/05/28 00:23:06;;;;;;;6.45;3.20;;;;;;;;;;2074741;28;20176;-56
2022/05/28 00:24:06;;;;;;;8.63;3.50;;;;;;;;;;2073593;28;20208;-55
2022/05/28 00:25:07;;;;;;;6.43;3.08;;;;;;;;;;2073533;28;20185;-55
2022/05/28 00:26:08;;;;;;;5.97;2.60;;;;;;;;;;2073180;28;20223;-57
2022/05/28 00:27:08;;;;;;;9.18;3.03;;;;;;;;;;2074108;28;20187;-55
2022/05/28 00:28:08;;;;;;;7.03;3.30;;;;;;;;;;2074439;28;20184;-56
2022/05/28 00:29:09;;;;;;;8.60;3.50;;;;;;;;;;2074502;28;20184;-56
2022/05/28 00:30:11;;;;;;;11.15;4.22;;;;;;;;;;2073840;28;20158;-53
2022/05/28 00:31:11;;;;;;;6.40;3.63;;;;;;;;;;2073768;28;20173;-56
2022/05/28 00:32:12;;;;;;;8.02;2.90;;;;;;;;;;2073824;28;20184;-53
2022/05/28 00:33:12;;;;;;;10.07;3.72;;;;;;;;;;2073898;28;20640;-54
2022/05/28 00:34:12;;;;;;;7.88;3.58;;;;;;;;;;2073754;28;20702;-53
2022/05/28 00:35:15;;;;;;;8.32;3.55;;;;;;;;;;2074423;28;20168;-55
2022/05/28 00:36:16;;;;;;;8.70;3.60;;;;;;;;;;2074549;28;20318;-53
2022/05/28 00:37:16;;;;;;;10.23;3.60;;;;;;;;;;2073763;28;20200;-53
2022/05/28 00:38:16;;;;;;;7.25;3.20;;;;;;;;;;2073843;28;20673;-55
2022/05/28 00:39:17;;;;;;;7.88;3.33;;;;;;;;;;2074314;28;20193;-55
2022/05/28 00:40:21;;;;;;;14.90;3.97;;;;;;;;;;2074322;28;20173;-56
2022/05/28 00:41:21;;;;;;;9.30;3.00;;;;;;;;;;2071719;28;20219;-55
2022/05/28 00:42:21;;;;;;;9.60;3.70;;;;;;;;;;2073525;28;20612;-55
2022/05/28 00:43:21;;;;;;;9.75;3.53;;;;;;;;;;2074111;28;20169;-54
2022/05/28 00:44:23;;;;;;;8.25;2.90;;;;;;;;;;2072502;28;20185;-56
2022/05/28 00:45:23;;;;;;;6.93;3.88;;;;;;;;;;2073460;28;20172;-56
2022/05/28 00:46:25;;;;;;;5.38;2.95;;;;;;;;;;2074272;28;20253;-53
2022/05/28 00:47:25;;;;;;;6.80;3.20;;;;;;;;;;2074212;28;20188;-53
2022/05/28 00:48:29;;;;;;;12.32;3.65;;;;;;;;;;2074436;28;20165;-55
2022/05/28 00:49:30;;;;;;;4.93;2.78;;;;;;;;;;2074260;28;20259;-53
2022/05/28 00:50:31;;;;;;;9.77;4.50;;;;;;;;;;2082764;28;20199;-57
2022/05/28 00:51:33;;;;;;;12.10;3.72;;;;;;;;;;2082115;28;20228;-55
2022/05/28 00:52:33;;;;;;;8.82;3.65;;;;;;;;;;2082490;28;20169;-57
2022/05/28 00:53:34;;;;;;;8.25;3.67;;;;;;;;;;2085727;28;20202;-57
2022/05/28 00:54:38;;;;;;;6.57;3.50;;;;;;;;;;2082599;28;20168;-57
2022/05/28 00:55:39;;;;;;;8.13;3.38;;;;;;;;;;2076158;28;20267;-55
2022/05/28 00:56:39;;;;;;;10.50;3.85;;;;;;;;;;2076532;28;20176;-56
2022/05/28 00:57:40;;;;;;;9.57;4.13;;;;;;;;;;2076516;28;20222;-55
2022/05/28 00:58:41;;;;;;;7.72;3.45;;;;;;;;;;2076746;28;20212;-61
2022/05/28 00:59:42;;;;;;;5.57;3.20;;;;;;;;;;2076678;28;20184;-57
2022/05/28 01:00:42;;;;;;;7.90;3.60;;;;;;;;;;2076426;28;20691;-55
2022/05/28 01:01:43;;;;;;;8.07;2.90;;;;;;;;;;2076175;28;20227;-56
2022/05/28 01:02:43;;;;;;;6.85;4.05;;;;;;;;;;2075342;28;20200;-58
2022/05/28 01:04:02;;;;;;;10.80;3.63;;;;;;;;;;2075595;28;20173;-54
2022/05/28 01:05:07;;;;;;;11.65;4.03;;;;;;;;;;2076609;28;20173;-56
2022/05/28 01:06:14;;;;;;;8.18;3.83;;;;;;;;;;2076925;28;20199;-55
2022/05/28 01:07:37;;;;;;;5.35;3.53;;;;;;;;;;2076216;28;20187;-53
2022/05/28 01:08:40;;;;;;;11.43;3.70;;;;;;;;;;2073967;28;20184;-54
2022/05/28 01:09:47;;;;;;;14.65;3.85;;;;;;;;;;2074467;28;20267;-53
2022/05/28 01:11:00;;;;;;;6.80;3.63;;;;;;;;;;2075021;28;20173;-53
2022/05/28 01:12:07;;;;;;;13.02;4.78;;;;;;;;;;2074950;28;20236;-54
2022/05/28 01:13:11;;;;;;;12.25;4.22;;;;;;;;;;2074368;28;20220;-57
2022/05/28 01:14:15;;;;;;;7.82;3.92;;;;;;;;;;2073326;28;20246;-54
2022/05/28 01:15:18;;;;;;;5.07;3.40;;;;;;;;;;2075133;28;20177;-54
2022/05/28 01:16:36;;;;;;;9.35;3.63;;;;;;;;;;2075037;28;20656;-57
2022/05/28 01:17:57;;;;;;;6.13;2.97;;;;;;;;;;2074961;28;20208;-54
2022/05/28 01:19:24;;;;;;;5.20;3.38;;;;;;;;;;2073583;28;20192;-54
2022/05/28 01:20:31;;;;;;;8.65;3.95;;;;;;;;;;2071480;28;20196;-56
2022/05/28 01:21:31;;;;;;;10.38;4.57;;;;;;;;;;2074286;28;20204;-55
2022/05/28 01:22:52;;;;;;;11.23;4.03;;;;;;;;;;2074956;28;20196;-56
2022/05/28 01:24:07;;;;;;;7.00;3.53;;;;;;;;;;2074467;28;20149;-53
2022/05/28 01:25:18;;;;;;;7.32;3.83;;;;;;;;;;2074858;28;20188;-54
2022/05/28 01:26:37;;;;;;;8.25;4.22;;;;;;;;;;2074249;28;20195;-53
2022/05/28 01:27:48;;;;;;;7.97;3.78;;;;;;;;;;2074329;28;20303;-55
2022/05/28 01:28:52;;;;;;;11.60;3.67;;;;;;;;;;2074680;28;20187;-55
2022/05/28 01:29:54;;;;;;;13.68;4.60;;;;;;;;;;2074916;28;20172;-53
2022/05/28 01:30:56;;;;;;;6.53;3.70;;;;;;;;;;2074757;28;20208;-53
2022/05/28 01:31:57;;;;;;;11.90;4.22;;;;;;;;;;2081469;28;20218;-54
2022/05/28 01:32:58;;;;;;;11.48;3.90;;;;;;;;;;2079577;28;20630;-54
2022/05/28 01:34:00;;;;;;;9.00;4.22;;;;;;;;;;2074373;28;20632;-55
2022/05/28 01:35:05;;;;;;;10.68;4.47;;;;;;;;;;2074892;28;20168;-55
2022/05/28 01:36:06;;;;;;;7.30;2.97;;;;;;;;;;2070184;28;20173;-53
2022/05/28 01:37:07;;;;;;;9.60;3.55;;;;;;;;;;2066781;28;20757;-54
2022/05/28 01:38:09;;;;;;;11.20;3.92;;;;;;;;;;2070809;28;20228;-53
2022/05/28 01:39:10;;;;;;;8.48;3.97;;;;;;;;;;2074790;28;20184;-54
2022/05/28 01:40:11;;;;;;;10.27;3.30;;;;;;;;;;2072935;28;20185;-57
2022/05/28 01:41:12;;;;;;;8.20;3.83;;;;;;;;;;2074833;28;20179;-54
2022/05/28 01:42:13;;;;;;;10.55;4.00;;;;;;;;;;2074263;28;20668;-55
2022/05/28 01:43:15;;;;;;;14.13;3.67;;;;;;;;;;2073826;28;20180;-54
2022/05/28 01:44:16;;;;;;;9.02;3.25;;;;;;;;;;2074104;28;20568;-55
2022/05/28 01:45:18;;;;;;;4.85;3.38;;;;;;;;;;2074220;28;20251;-52
2022/05/28 01:46:19;;;;;;;6.20;3.47;;;;;;;;;;2074833;28;20639;-54
2022/05/28 01:47:19;;;;;;;10.52;3.50;;;;;;;;;;2074227;28;20248;-54
2022/05/28 01:48:20;;;;;;;8.55;3.40;;;;;;;;;;2080852;28;20211;-54
2022/05/28 01:49:21;;;;;;;8.90;2.90;;;;;;;;;;2076553;28;20220;-56
2022/05/28 01:50:23;;;;;;;5.85;2.42;;;;;;;;;;2075706;28;20699;-54
2022/05/28 01:51:27;;;;;;;4.45;2.40;;;;;;;;;;2074644;28;20642;-55
2022/05/28 01:52:28;;;;;;;2.97;2.10;;;;;;;;;;2074590;28;20646;-51
2022/05/28 01:54:49;;;;;;;3.72;2.63;;;;;;;;;;2073825;28;20622;-56
2022/05/28 01:55:49;;;;;;;7.70;2.83;;;;;;;;;;2073960;28;20208;-56
2022/05/28 01:56:51;;;;;;;4.35;2.80;;;;;;;;;;2074076;28;20172;-53
2022/05/28 01:57:52;;;;;;;3.03;2.17;;;;;;;;;;2073459;28;20231;-53
2022/05/28 01:58:52;;;;;;;3.30;2.58;;;;;;;;;;2074665;28;20200;-55
2022/05/28 01:59:52;;;;;;;5.22;3.13;;;;;;;;;;2074948;28;20161;-52
2022/05/28 02:00:53;;;;;;;4.15;2.65;;;;;;;;;;2074765;28;20165;-54
2022/05/28 02:01:54;;;;;;;5.93;2.50;;;;;;;;;;2074502;28;20181;-53
2022/05/28 02:02:56;;;;;;;2.85;2.13;;;;;;;;;;2073873;28;20540;-55
2022/05/28 02:03:59;;;;;;;3.72;2.30;;;;;;;;;;2073596;28;20177;-56
2022/05/28 02:04:59;;;;;;;4.40;2.20;;;;;;;;;;2074461;28;20176;-51
2022/05/28 02:05:59;;;;;;;5.22;2.30;;;;;;;;;;2074630;28;20201;-56
2022/05/28 02:07:02;;;;;;;2.85;2.08;;;;;;;;;;2074403;28;20200;-56
2022/05/28 02:08:02;;;;;;;5.43;2.05;;;;;;;;;;2074127;28;20200;-55
2022/05/28 02:09:05;;;;;;;4.05;2.28;;;;;;;;;;2074615;28;20204;-56
2022/05/28 02:10:08;;;;;;;2.95;2.60;;;;;;;;;;2074258;28;20267;-53
2022/05/28 02:11:15;;;;;;;4.35;2.13;;;;;;;;;;2074360;28;20239;-54
2022/05/28 02:12:25;;;;;;;6.25;2.55;;;;;;;;;;2074526;28;20692;-57
2022/05/28 02:13:30;;;;;;;2.95;2.00;;;;;;;;;;2074501;28;20172;-57
2022/05/28 02:14:36;;;;;;;3.03;2.40;;;;;;;;;;2073581;28;20220;-53
2022/05/28 02:15:48;;;;;;;3.05;2.20;;;;;;;;;;2073826;28;20186;-54
2022/05/28 02:16:49;;;;;;;4.25;2.08;;;;;;;;;;2073985;28;20267;-53
2022/05/28 02:17:59;;;;;;;3.30;2.10;;;;;;;;;;2074349;28;20188;-55
2022/05/28 02:19:00;;;;;;;3.72;2.78;;;;;;;;;;2074485;28;20208;-54
2022/05/28 02:20:07;;;;;;;4.80;1.90;;;;;;;;;;2075582;28;20161;-52
2022/05/28 02:21:10;;;;;;;5.10;2.70;;;;;;;;;;2075314;28;20264;-52
2022/05/28 02:22:14;;;;;;;5.60;2.13;;;;;;;;;;2075490;28;20630;-53
2022/05/28 02:23:26;;;;;;;5.25;2.10;;;;;;;;;;2075272;28;20745;-53
2022/05/28 02:24:33;;;;;;;7.00;2.90;;;;;;;;;;2074691;28;20267;-54
2022/05/28 02:25:36;;;;;;;4.20;2.28;;;;;;;;;;2075171;28;20638;-56
2022/05/28 02:26:43;;;;;;;5.25;2.50;;;;;;;;;;2075187;28;20173;-57
2022/05/28 02:27:44;;;;;;;5.00;2.78;;;;;;;;;;2074905;28;20287;-54
2022/05/28 02:28:45;;;;;;;5.22;2.83;;;;;;;;;;2075386;28;20180;-53
2022/05/28 02:29:45;;;;;;;4.07;2.00;;;;;;;;;;2075362;28;20192;-54
2022/05/28 02:30:50;;;;;;;4.80;2.53;;;;;;;;;;2075679;28;20448;-54
2022/05/28 02:31:51;;;;;;;3.95;2.50;;;;;;;;;;2075089;28;20184;-53
2022/05/28 02:33:04;;;;;;;6.20;2.42;;;;;;;;;;2075088;28;20172;-54
2022/05/28 02:34:05;;;;;;;3.78;2.80;;;;;;;;;;2073264;28;20672;-55
2022/05/28 02:35:06;;;;;;;3.80;2.45;;;;;;;;;;2075369;28;20193;-53
2022/05/28 02:36:06;;;;;;;3.42;2.50;;;;;;;;;;2075589;28;20235;-53
2022/05/28 02:37:07;;;;;;;8.63;3.00;;;;;;;;;;2075451;28;20278;-54
2022/05/28 02:38:07;;;;;;;6.05;3.08;;;;;;;;;;2074558;28;20193;-53
2022/05/28 02:39:07;;;;;;;9.13;3.25;;;;;;;;;;2075152;28;20215;-52
2022/05/28 02:40:08;;;;;;;3.47;2.65;;;;;;;;;;2075168;28;20258;-53
2022/05/28 02:41:08;;;;;;;9.07;4.05;;;;;;;;;;2075483;28;20638;-54
2022/05/28 02:42:08;;;;;;;5.78;3.15;;;;;;;;;;2074893;28;20633;-54
2022/05/28 02:43:08;;;;;;;3.65;3.15;;;;;;;;;;2075043;28;20532;-55
2022/05/28 02:44:09;;;;;;;5.63;2.88;;;;;;;;;;2074042;28;20188;-55
2022/05/28 02:45:10;;;;;;;7.05;2.92;;;;;;;;;;2073067;28;20176;-55
2022/05/28 02:46:10;;;;;;;6.65;3.15;;;;;;;;;;2075101;28;20540;-53
2022/05/28 02:47:11;;;;;;;7.32;3.40;;;;;;;;;;2071983;28;20320;-54
2022/05/28 02:48:11;;;;;;;6.30;3.53;;;;;;;;;;2071589;28;20181;-53
2022/05/28 02:49:11;;;;;;;8.43;4.35;;;;;;;;;;2074395;28;20245;-52
2022/05/28 02:50:12;;;;;;;5.95;3.33;;;;;;;;;;2080617;28;20176;-51
2022/05/28 02:51:13;;;;;;;6.95;3.50;;;;;;;;;;2083881;28;20220;-52
2022/05/28 02:52:14;;;;;;;5.10;3.38;;;;;;;;;;2083586;28;20172;-54
2022/05/28 02:53:14;;;;;;;7.55;4.10;;;;;;;;;;2076758;28;20296;-52
2022/05/28 02:54:14;;;;;;;9.70;3.45;;;;;;;;;;2074017;28;20659;-52
2022/05/28 02:55:15;;;;;;;5.97;3.30;;;;;;;;;;2075286;28;20364;-54
2022/05/28 02:56:15;;;;;;;6.65;3.63;;;;;;;;;;2074874;28;20654;-52
2022/05/28 02:57:16;;;;;;;13.32;3.75;;;;;;;;;;2074596;28;20211;-56
2022/05/28 02:58:17;;;;;;;8.95;3.67;;;;;;;;;;2075239;28;20209;-53
2022/05/28 02:59:17;;;;;;;7.18;3.35;;;;;;;;;;2075476;28;20251;-52
2022/05/28 03:00:18;;;;;;;10.38;4.45;;;;;;;;;;2075887;28;20172;-56
2022/05/28 03:01:35;;;;;;;6.40;3.60;;;;;;;;;;2075255;28;20195;-52
2022/05/28 03:02:35;;;;;;;6.60;3.28;;;;;;;;;;2075965;28;20164;-53
2022/05/28 03:03:35;;;;;;;5.38;3.58;;;;;;;;;;2075589;28;20208;-55
2022/05/28 03:04:36;;;;;;;7.97;3.28;;;;;;;;;;2075264;28;20197;-58
2022/05/28 03:05:36;;;;;;;8.27;3.50;;;;;;;;;;2077985;28;20169;-57
2022/05/28 03:06:37;;;;;;;7.10;3.60;;;;;;;;;;2078360;28;20205;-56
2022/05/28 03:07:37;;;;;;;7.38;3.80;;;;;;;;;;2076937;28;20189;-56
2022/05/28 03:08:38;;;;;;;5.50;3.30;;;;;;;;;;2076515;28;20173;-55
2022/05/28 03:09:38;;;;;;;8.52;3.85;;;;;;;;;;2076199;28;20531;-53
2022/05/28 03:10:38;;;;;;;8.98;3.45;;;;;;;;;;2076001;28;20176;-56
2022/05/28 03:11:38;;;;;;;6.82;3.40;;;;;;;;;;2073782;28;20177;-56
2022/05/28 03:12:39;;;;;;;6.53;3.40;;;;;;;;;;2073572;28;20693;-53
2022/05/28 03:13:40;;;;;;;10.23;3.60;;;;;;;;;;2074190;28;20180;-55
2022/05/28 03:14:40;;;;;;;4.90;2.90;;;;;;;;;;2073511;28;20676;-56
2022/05/28 03:15:40;;;;;;;10.90;3.92;;;;;;;;;;2074345;28;20169;-56
2022/05/28 03:16:42;;;;;;;6.65;3.60;;;;;;;;;;2074697;28;20180;-53
2022/05/28 03:17:42;;;;;;;13.35;3.08;;;;;;;;;;2074417;28;20621;-55
2022/05/28 03:18:42;;;;;;;6.03;3.20;;;;;;;;;;2074223;28;20196;-53
2022/05/28 03:19:43;;;;;;;7.72;3.15;;;;;;;;;;2074398;28;20638;-55
2022/05/28 03:20:43;;;;;;;7.57;3.75;;;;;;;;;;2074327;28;20173;-55
2022/05/28 03:21:43;;;;;;;5.40;3.15;;;;;;;;;;2074462;28;20196;-55
2022/05/28 03:22:43;;;;;;;7.32;3.33;;;;;;;;;;2074052;28;20177;-55
2022/05/28 03:23:47;;;;;;;7.55;3.30;;;;;;;;;;2074305;28;20204;-57
2022/05/28 03:24:47;;;;;;;6.38;3.08;;;;;;;;;;2073365;28;20642;-56
2022/05/28 03:25:48;;;;;;;8.70;3.35;;;;;;;;;;2074540;28;20177;-58
2022/05/28 03:26:48;;;;;;;7.07;3.03;;;;;;;;;;2074398;28;20180;-55
2022/05/28 03:27:48;;;;;;;7.93;3.40;;;;;;;;;;2074000;28;20232;-53
2022/05/28 03:28:49;;;;;;;9.63;3.30;;;;;;;;;;2073112;28;20654;-55
2022/05/28 03:29:50;;;;;;;5.25;2.63;;;;;;;;;;2073767;28;20220;-57
2022/05/28 03:30:50;;;;;;;4.25;3.17;;;;;;;;;;2074393;28;20271;-57
2022/05/28 03:31:50;;;;;;;9.20;3.80;;;;;;;;;;2073558;28;20179;-53
2022/05/28 03:32:51;;;;;;;11.23;3.33;;;;;;;;;;2073193;28;20213;-57
2022/05/28 03:33:51;;;;;;;9.25;3.60;;;;;;;;;;2074184;28;20176;-53
2022/05/28 03:34:51;;;;;;;8.35;3.05;;;;;;;;;;2072853;28;20197;-58
2022/05/28 03:35:51;;;;;;;5.53;3.15;;;;;;;;;;2073672;28;20372;-55
2022/05/28 03:36:52;;;;;;;10.25;3.75;;;;;;;;;;2074128;28;20686;-56
2022/05/28 03:37:52;;;;;;;6.28;3.13;;;;;;;;;;2072984;28;20207;-55
2022/05/28 03:38:52;;;;;;;6.22;3.58;;;;;;;;;;2073795;28;20255;-55
2022/05/28 03:39:52;;;;;;;8.20;2.88;;;;;;;;;;2074099;28;20169;-54
2022/05/28 03:40:53;;;;;;;4.47;3.08;;;;;;;;;;2074346;28;20608;-55
2022/05/28 03:41:53;;;;;;;6.72;3.42;;;;;;;;;;2074078;28;20189;-55
2022/05/28 03:42:53;;;;;;;7.38;3.30;;;;;;;;;;2074018;28;20180;-56
2022/05/28 03:43:54;;;;;;;7.72;3.30;;;;;;;;;;2073169;28;20304;-54
2022/05/28 03:44:54;;;;;;;5.95;3.10;;;;;;;;;;2073082;28;20165;-54
2022/05/28 03:45:54;;;;;;;8.90;3.28;;;;;;;;;;2073927;28;20180;-56
2022/05/28 03:46:55;;;;;;;9.35;3.63;;;;;;;;;;2073756;28;20597;-55
2022/05/28 03:47:56;;;;;;;9.45;3.47;;;;;;;;;;2073853;28;20181;-56
2022/05/28 03:48:59;;;;;;;6.85;3.88;;;;;;;;;;2073649;28;20173;-55
2022/05/28 03:49:59;;;;;;;4.82;2.95;;;;;;;;;;2078339;28;20186;-54
2022/05/28 03:50:59;;;;;;;11.65;3.75;;;;;;;;;;2082318;28;20163;-52
2022/05/28 03:52:01;;;;;;;9.93;3.63;;;;;;;;;;2082439;28;20173;-55
2022/05/28 03:53:02;;;;;;;4.60;2.83;;;;;;;;;;2083006;28;20188;-55
2022/05/28 03:54:02;;;;;;;6.20;3.00;;;;;;;;;;2072596;28;20177;-55
2022/05/28 03:55:02;;;;;;;5.03;3.08;;;;;;;;;;2073950;28;20219;-54
2022/05/28 03:56:03;;;;;;;7.22;2.85;;;;;;;;;;2074042;28;20286;-56
2022/05/28 03:57:05;;;;;;;6.82;3.15;;;;;;;;;;2074076;28;20179;-53
2022/05/28 03:58:06;;;;;;;6.30;3.38;;;;;;;;;;2073490;28;20270;-55
2022/05/28 03:59:07;;;;;;;7.55;3.00;;;;;;;;;;2074344;28;20201;-53
2022/05/28 04:00:07;;;;;;;5.22;3.13;;;;;;;;;;2074042;28;20317;-53
2022/05/28 04:01:07;;;;;;;8.90;3.05;;;;;;;;;;2074111;28;20188;-54
2022/05/28 04:02:08;;;;;;;4.68;3.10;;;;;;;;;;2073797;28;20169;-55
2022/05/28 04:03:08;;;;;;;9.05;3.70;;;;;;;;;;2073854;28;20521;-53
2022/05/28 04:04:08;;;;;;;5.63;3.15;;;;;;;;;;2073038;28;20172;-55
2022/05/28 04:05:09;;;;;;;8.43;3.42;;;;;;;;;;2073863;28;20218;-55
2022/05/28 04:06:10;;;;;;;7.78;3.38;;;;;;;;;;2073768;28;20720;-54
2022/05/28 04:07:11;;;;;;;5.32;3.30;;;;;;;;;;2073731;28;20173;-53
2022/05/28 04:08:11;;;;;;;7.28;3.53;;;;;;;;;;2073845;28;20164;-56
2022/05/28 04:09:11;;;;;;;3.35;2.70;;;;;;;;;;2074139;28;20648;-55
2022/05/28 04:10:11;;;;;;;9.35;3.35;;;;;;;;;;2073684;28;20327;-53
2022/05/28 04:11:13;;;;;;;5.13;3.13;;;;;;;;;;2073910;28;20216;-55
2022/05/28 04:12:13;;;;;;;5.28;2.65;;;;;;;;;;2073782;28;20563;-56
2022/05/28 04:13:13;;;;;;;10.20;3.13;;;;;;;;;;2073966;28;20185;-54
2022/05/28 04:14:13;;;;;;;6.80;3.33;;;;;;;;;;2072767;28;20303;-56
2022/05/28 04:15:14;;;;;;;3.88;2.50;;;;;;;;;;2073821;28;20196;-53
2022/05/28 04:16:14;;;;;;;5.70;3.13;;;;;;;;;;2073659;28;20177;-55
2022/05/28 04:17:15;;;;;;;6.28;2.85;;;;;;;;;;2073907;28;20175;-55
2022/05/28 04:18:15;;;;;;;5.35;2.58;;;;;;;;;;2073643;28;20169;-53
2022/05/28 04:19:16;;;;;;;8.05;3.10;;;;;;;;;;2073797;28;20188;-51
2022/05/28 04:20:16;;;;;;;7.38;3.20;;;;;;;;;;2073882;28;20210;-56
2022/05/28 04:21:17;;;;;;;8.32;2.88;;;;;;;;;;2073866;28;20207;-52
2022/05/28 04:22:17;;;;;;;6.10;2.97;;;;;;;;;;2074197;28;20227;-54
2022/05/28 04:23:18;;;;;;;6.35;2.72;;;;;;;;;;2072977;28;20620;-54
2022/05/28 04:24:18;;;;;;;6.40;3.13;;;;;;;;;;2072736;28;20657;-53
2022/05/28 04:25:18;;;;;;;7.07;2.80;;;;;;;;;;2073735;28;20169;-53
2022/05/28 04:26:18;;;;;;;8.02;2.70;;;;;;;;;;2073889;28;20183;-55
2022/05/28 04:27:19;;;;;;;5.63;3.13;;;;;;;;;;2074118;28;20224;-53
2022/05/28 04:28:19;;;;;;;6.55;2.80;;;;;;;;;;2076792;22;20244;-53
2022/05/28 04:29:19;;;;;;;10.15;2.92;;;;;;;;;;2063669;28;20182;-57
2022/05/28 04:30:20;;;;;;;8.77;3.47;;;;;;;;;;2064557;28;20176;-55
2022/05/28 04:31:20;;;;;;;7.68;2.85;;;;;;;;;;2065532;28;20601;-54
2022/05/28 04:32:20;;;;;;;6.80;3.38;;;;;;;;;;2064176;28;20178;-52
2022/05/28 04:33:20;;;;;;;5.10;2.63;;;;;;;;;;2065219;28;20232;-52
2022/05/28 04:34:21;;;;;;;5.93;2.80;;;;;;;;;;2064286;28;20173;-54
2022/05/28 04:35:21;;;;;;;5.50;2.65;;;;;;;;;;2063926;28;20279;-52
2022/05/28 04:36:21;;;;;;;12.38;3.47;;;;;;;;;;2070634;28;20264;-51
2022/05/28 04:37:21;;;;;;;7.97;3.22;;;;;;;;;;2065882;28;20175;-51
2022/05/28 04:38:23;;;;;;;5.70;2.85;;;;;;;;;;2062852;28;20213;-58
2022/05/28 04:39:23;;;;;;;9.95;2.65;;;;;;;;;;2066609;28;20177;-52
2022/05/28 04:40:24;;;;;;;5.97;2.90;;;;;;;;;;2067146;28;20323;-51
2022/05/28 04:41:24;;;;;;;8.35;2.70;;;;;;;;;;2071088;28;20173;-56
2022/05/28 04:42:24;;;;;;;5.90;2.83;;;;;;;;;;2065681;28;20646;-55
2022/05/28 04:43:25;;;;;;;4.65;3.03;;;;;;;;;;2064162;28;20232;-55
2022/05/28 04:44:25;;;;;;;7.60;3.05;;;;;;;;;;2064044;28;20162;-54
2022/05/28 04:45:25;;;;;;;7.40;3.17;;;;;;;;;;2064198;28;20213;-53
2022/05/28 04:46:25;;;;;;;7.85;3.03;;;;;;;;;;2065041;28;20166;-54
2022/05/28 04:47:26;;;;;;;6.15;3.03;;;;;;;;;;2059758;28;20265;-53
2022/05/28 04:48:26;;;;;;;9.02;3.00;;;;;;;;;;2060974;28;20201;-53
2022/05/28 04:49:26;;;;;;;6.97;2.58;;;;;;;;;;2065452;28;20254;-58
2022/05/28 04:50:27;;;;;;;10.75;2.75;;;;;;;;;;2073031;28;20665;-57
2022/05/28 04:51:27;;;;;;;5.00;2.50;;;;;;;;;;2065959;28;20253;-52
2022/05/28 04:52:27;;;;;;;3.30;2.47;;;;;;;;;;2056863;28;20568;-57
2022/05/28 04:53:28;;;;;;;8.13;2.88;;;;;;;;;;2059729;28;20598;-54
2022/05/28 04:54:28;;;;;;;6.85;2.80;;;;;;;;;;2064379;28;20174;-54
2022/05/28 04:55:28;;;;;;;6.47;2.72;;;;;;;;;;2063549;28;20235;-54
2022/05/28 04:56:28;;;;;;;8.40;2.72;;;;;;;;;;2061543;28;20265;-55
2022/05/28 04:57:29;;;;;;;6.47;2.60;;;;;;;;;;2065300;28;20233;-57
2022/05/28 04:58:29;;;;;;;5.03;2.83;;;;;;;;;;2062743;28;20217;-55
2022/05/28 04:59:29;;;;;;;6.18;2.70;;;;;;;;;;2066263;28;20177;-59
2022/05/28 05:00:30;;;;;;;4.40;2.47;;;;;;;;;;2072692;28;20212;-55
2022/05/28 05:01:30;;;;;;;5.65;2.88;;;;;;;;;;2068763;28;20212;-55
2022/05/28 05:02:30;;;;;;;7.40;2.85;;;;;;;;;;2060103;28;20250;-57
2022/05/28 05:03:32;;;;;;;8.40;2.63;;;;;;;;;;2056764;28;20205;-55
2022/05/28 05:04:32;;;;;;;7.35;3.22;;;;;;;;;;2064162;28;20181;-52
2022/05/28 05:05:32;;;;;;;3.60;2.55;;;;;;;;;;2059031;28;20573;-55
2022/05/28 05:06:33;;;;;;;7.20;2.50;;;;;;;;;;2057248;28;20175;-54
2022/05/28 05:07:33;;;;;;;8.30;2.50;;;;;;;;;;2057285;28;20174;-57
2022/05/28 05:08:33;;;;;;;5.60;2.33;;;;;;;;;;2057154;28;20221;-56
2022/05/28 05:09:33;;;;;;;10.70;2.97;;;;;;;;;;2056668;28;20185;-56
2022/05/28 05:10:34;;;;;;;8.50;3.22;;;;;;;;;;2056975;28;20198;-61
2022/05/28 05:11:34;;;;;;;7.40;2.75;;;;;;;;;;2057286;28;20631;-57
2022/05/28 05:12:34;;;;;;;5.05;2.72;;;;;;;;;;2057388;28;20201;-53
2022/05/28 05:13:35;;;;;;;6.20;2.80;;;;;;;;;;2058361;28;20166;-56
2022/05/28 05:14:35;;;;;;;6.15;2.78;;;;;;;;;;2064583;28;20166;-51
2022/05/28 05:15:37;;;;;;;5.80;3.13;;;;;;;;;;2064988;28;20651;-55
2022/05/28 05:16:37;;;;;;;8.15;2.92;;;;;;;;;;2065477;28;20170;-57
2022/05/28 05:17:37;;;;;;;4.20;2.75;;;;;;;;;;2065268;28;20182;-57
2022/05/28 05:18:38;;;;;;;6.75;2.85;;;;;;;;;;2065220;28;20300;-57
2022/05/28 05:19:39;;;;;;;6.72;2.42;;;;;;;;;;2065133;28;20726;-55
2022/05/28 05:20:39;;;;;;;5.53;2.92;;;;;;;;;;2065379;28;20174;-58
2022/05/28 05:21:40;;;;;;;7.03;2.50;;;;;;;;;;2065320;28;20189;-57
2022/05/28 05:22:40;;;;;;;7.10;3.00;;;;;;;;;;2065516;28;20204;-54
2022/05/28 05:23:41;;;;;;;9.57;3.33;;;;;;;;;;2064819;28;20162;-54
2022/05/28 05:24:42;;;;;;;6.72;2.55;;;;;;;;;;2064400;28;20181;-56
2022/05/28 05:25:42;;;;;;;7.78;2.65;;;;;;;;;;2065186;28;20193;-57
2022/05/28 05:26:42;;;;;;;6.68;2.83;;;;;;;;;;2065324;28;20217;-58
2022/05/28 05:27:43;;;;;;;7.03;2.60;;;;;;;;;;2065020;28;20189;-58
2022/05/28 05:28:43;;;;;;;7.53;2.97;;;;;;;;;;2065161;28;20292;-54
2022/05/28 05:29:44;;;;;;;9.85;3.10;;;;;;;;;;2065300;28;20284;-58
2022/05/28 05:30:44;;;;;;;3.72;2.53;;;;;;;;;;2065299;28;20187;-55
2022/05/28 05:31:44;;;;;;;5.22;2.65;;;;;;;;;;2065085;28;20170;-57
2022/05/28 05:32:44;;;;;;;8.30;2.67;;;;;;;;;;2065370;28;20693;-58
2022/05/28 05:33:45;;;;;;;10.73;3.42;;;;;;;;;;2065167;28;20206;-57
2022/05/28 05:34:45;;;;;;;6.53;2.95;;;;;;;;;;2064471;28;20522;-52
2022/05/28 05:35:45;;;;;;;7.97;2.85;;;;;;;;;;2065155;28;20173;-58
2022/05/28 05:36:46;;;;;;;5.78;2.58;;;;;;;;;;2063896;28;20608;-59
2022/05/28 05:37:46;;;;;;;6.53;3.03;;;;;;;;;;2065308;28;20166;-59
2022/05/28 05:38:46;;;;;;;7.78;2.78;;;;;;;;;;2065144;28;20296;-56
2022/05/28 05:39:46;;;;;;;6.38;3.20;;;;;;;;;;2059529;28;20166;-50
2022/05/28 05:40:49;;;;;;;4.25;2.75;;;;;;;;;;2056826;28;20253;-57
2022/05/28 05:41:50;;;;;;;4.90;3.15;;;;;;;;;;2064254;28;20201;-54
2022/05/28 05:42:50;;;;;;;5.85;2.63;;;;;;;;;;2065386;28;20661;-53
2022/05/28 05:43:50;;;;;;;9.55;3.03;;;;;;;;;;2065128;28;20193;-52
2022/05/28 05:44:51;;;;;;;3.47;2.20;;;;;;;;;;2064361;28;20197;-53
2022/05/28 05:45:55;;;;;;;8.73;3.17;;;;;;;;;;2065483;28;20174;-52
2022/05/28 05:46:55;;;;;;;8.60;3.15;;;;;;;;;;2064402;28;20666;-54
2022/05/28 05:47:55;;;;;;;7.22;3.28;;;;;;;;;;2055273;28;20193;-49
2022/05/28 05:48:56;;;;;;;6.97;2.80;;;;;;;;;;2057050;28;20698;-51
2022/05/28 05:49:56;;;;;;;5.97;2.65;;;;;;;;;;2063912;28;20546;-54
2022/05/28 05:51:03;;;;;;;5.97;2.30;;;;;;;;;;2064976;28;20236;-57
2022/05/28 05:52:04;;;;;;;6.63;2.88;;;;;;;;;;2065296;28;20615;-50
2022/05/28 05:53:04;;;;;;;7.68;3.38;;;;;;;;;;2066250;28;20706;-51
2022/05/28 05:54:04;;;;;;;6.00;2.35;;;;;;;;;;2065597;28;20208;-56
2022/05/28 05:55:05;;;;;;;7.55;2.60;;;;;;;;;;2063867;28;20181;-54
2022/05/28 05:56:05;;;;;;;6.28;3.17;;;;;;;;;;2061021;28;20640;-51
2022/05/28 05:57:05;;;;;;;7.40;3.13;;;;;;;;;;2061585;28;20313;-51
2022/05/28 05:58:06;;;;;;;6.13;2.83;;;;;;;;;;2062734;28;20267;-56
2022/05/28 05:59:06;;;;;;;10.40;2.70;;;;;;;;;;2061276;28;20560;-55
2022/05/28 06:00:06;;;;;;;10.20;3.42;;;;;;;;;;2066338;28;20622;-55
2022/05/28 06:01:07;;;;;;;7.90;2.95;;;;;;;;;;2063503;28;20324;-54
2022/05/28 06:02:08;;;;;;;4.78;3.08;;;;;;;;;;2061061;28;20170;-58
2022/05/28 06:03:14;;;;;;;6.35;2.80;;;;;;;;;;2062599;28;20189;-52
2022/05/28 06:04:15;;;;;;;6.35;2.65;;;;;;;;;;2060183;28;20260;-54
2022/05/28 06:05:15;;;;;;;7.57;3.00;;;;;;;;;;2063695;28;20235;-57
2022/05/28 06:06:16;;;;;;;5.57;2.55;;;;;;;;;;2066687;28;20213;-55
2022/05/28 06:07:17;;;;;;;8.30;2.97;;;;;;;;;;2066216;28;20653;-51
2022/05/28 06:08:17;;;;;;;8.85;3.17;;;;;;;;;;2066029;28;20197;-51
2022/05/28 06:09:17;;;;;;;13.10;3.85;;;;;;;;;;2066199;28;20650;-49
2022/05/28 06:10:18;;;;;;;7.28;3.35;;;;;;;;;;2063256;28;20182;-56